Time;durP1;ratioP1;P1;durP2;ratioP2;P2;SDS_P1;SDS_P2;PMS_P1;PMS_P2;Temp;Humidity;BMP_temperature;BMP_pressure;BME280_temperature;BME280_humidity;BME280_pressure;Samples;Min_cycle;Max_cycle;Signal;HPM_P1;HPM_P2
2023/03/05 00:01:44;;;;;;;7.57;3.50;;;2.60;99.90;;;;;;7384186;19;20372;-83
2023/03/05 00:04:12;;;;;;;7.68;3.38;;;2.60;99.90;;;;;;7383057;19;20324;-80
2023/03/05 00:06:38;;;;;;;4.93;3.20;;;2.60;99.90;;;;;;7386214;19;20341;-84
2023/03/05 00:09:07;;;;;;;14.68;7.32;;;2.60;99.90;;;;;;7388474;19;20321;-86
2023/03/05 00:11:34;;;;;;;6.90;3.40;;;2.60;99.90;;;;;;7381640;19;20368;-87
2023/03/05 00:14:02;;;;;;;6.38;3.47;;;2.50;99.90;;;;;;7385741;19;20335;-79
2023/03/05 00:16:30;;;;;;;8.60;3.85;;;2.50;99.90;;;;;;7389895;19;20320;-82
2023/03/05 00:19:02;;;;;;;9.48;3.88;;;2.50;99.90;;;;;;7390821;19;20665;-78
2023/03/05 00:21:39;;;;;;;12.77;3.85;;;2.60;99.90;;;;;;7390042;19;20399;-89
2023/03/05 00:24:24;;;;;;;8.38;3.55;;;2.50;99.90;;;;;;7373987;19;20319;-81
2023/03/05 00:26:50;;;;;;;7.43;3.53;;;2.50;99.90;;;;;;7385698;19;20424;-83
2023/03/05 00:29:20;;;;;;;8.67;3.63;;;2.60;99.90;;;;;;7384309;19;20301;-81
2023/03/05 00:31:46;;;;;;;7.47;3.72;;;2.50;99.90;;;;;;7384404;19;20392;-81
2023/03/05 00:34:13;;;;;;;7.37;3.60;;;2.60;99.90;;;;;;7385262;19;20328;-79
2023/03/05 00:36:39;;;;;;;8.45;3.30;;;2.50;99.90;;;;;;7385297;19;20678;-80
2023/03/05 00:39:05;;;;;;;8.35;3.45;;;2.50;99.90;;;;;;7381792;19;20315;-82
2023/03/05 00:41:31;;;;;;;10.43;3.53;;;2.50;99.90;;;;;;7383708;19;20317;-85
2023/03/05 00:43:56;;;;;;;7.30;3.47;;;2.50;99.90;;;;;;7383823;19;20377;-79
2023/03/05 00:56:10;;;;;;;8.23;3.45;;;2.50;99.90;;;;;;7384220;19;20315;-80
2023/03/05 00:58:36;;;;;;;5.40;3.13;;;2.50;99.90;;;;;;7382880;19;20324;-83
2023/03/05 01:01:02;;;;;;;7.63;3.17;;;2.40;99.90;;;;;;7386251;19;20312;-78
2023/03/05 01:03:29;;;;;;;7.95;3.53;;;2.40;99.90;;;;;;7387141;19;20336;-77
2023/03/05 01:05:55;;;;;;;7.63;3.05;;;2.40;99.90;;;;;;7387349;19;20334;-78
2023/03/05 01:08:20;;;;;;;6.82;3.00;;;2.40;99.90;;;;;;7387745;19;20324;-80
2023/03/05 01:10:46;;;;;;;7.80;2.80;;;2.40;99.90;;;;;;7386668;19;20706;-79
2023/03/05 01:13:11;;;;;;;8.10;2.70;;;2.40;99.90;;;;;;7386162;19;20672;-83
2023/03/05 01:15:37;;;;;;;7.83;2.83;;;2.40;99.90;;;;;;7386245;19;20329;-81
2023/03/05 01:18:03;;;;;;;8.75;3.28;;;2.30;99.90;;;;;;7381139;19;21051;-81
2023/03/05 01:20:28;;;;;;;5.20;2.73;;;2.30;99.90;;;;;;7382687;19;20336;-81
2023/03/05 01:22:54;;;;;;;7.03;2.85;;;2.40;99.90;;;;;;7386949;19;20328;-83
2023/03/05 01:25:21;;;;;;;7.77;2.80;;;2.30;99.90;;;;;;7381868;19;20427;-81
2023/03/05 01:27:46;;;;;;;5.78;2.92;;;2.30;99.90;;;;;;7382669;19;20337;-82
2023/03/05 01:30:13;;;;;;;7.18;3.22;;;2.30;99.90;;;;;;7372562;19;21234;-79
2023/03/05 01:32:38;;;;;;;6.57;2.80;;;2.30;99.90;;;;;;7383640;19;20349;-81
2023/03/05 01:35:07;;;;;;;7.90;3.00;;;2.30;99.90;;;;;;7388028;19;21131;-89
2023/03/05 01:37:33;;;;;;;8.13;2.70;;;2.30;99.90;;;;;;7396501;19;20332;-84
2023/03/05 01:39:58;;;;;;;7.57;2.72;;;2.30;99.90;;;;;;7394487;19;20325;-78
2023/03/05 01:42:25;;;;;;;7.00;2.70;;;2.30;99.90;;;;;;7381839;19;20332;-77
2023/03/05 01:45:08;;;;;;;5.43;2.67;;;2.30;99.90;;;;;;7394854;19;20452;-84
2023/03/05 01:47:35;;;;;;;6.07;2.60;;;2.40;99.90;;;;;;7387376;19;20309;-80
2023/03/05 01:50:10;;;;;;;7.80;2.95;;;2.40;99.90;;;;;;7383561;19;20392;-79
2023/03/05 01:52:37;;;;;;;6.05;2.28;;;2.40;99.90;;;;;;7387342;19;20359;-79
2023/03/05 01:55:16;;;;;;;7.40;2.70;;;2.40;99.90;;;;;;7385769;19;20305;-88
2023/03/05 01:57:52;;;;;;;7.15;2.67;;;2.40;99.90;;;;;;7279864;19;2004434;-79
2023/03/05 02:00:21;;;;;;;5.85;2.60;;;2.40;99.90;;;;;;7375656;19;20317;-91
2023/03/05 02:03:07;;;;;;;6.68;2.70;;;2.40;99.90;;;;;;7386593;19;20362;-84
2023/03/05 02:05:33;;;;;;;4.53;2.63;;;2.40;99.90;;;;;;7385825;19;20665;-82
2023/03/05 02:08:04;;;;;;;6.83;2.00;;;2.40;99.90;;;;;;7368592;19;20317;-87
2023/03/05 02:10:31;;;;;;;4.95;2.28;;;2.50;99.90;;;;;;7341087;19;20433;-82
2023/03/05 02:12:59;;;;;;;7.38;2.70;;;2.40;99.90;;;;;;7367577;19;20325;-87
2023/03/05 02:15:24;;;;;;;5.38;2.60;;;2.40;99.90;;;;;;7399350;19;20338;-90
2023/03/05 02:17:51;;;;;;;7.05;2.65;;;2.40;99.90;;;;;;7399755;19;20348;-86
2023/03/05 02:20:20;;;;;;;5.05;2.25;;;2.30;99.90;;;;;;7390367;19;20870;-81
2023/03/05 02:22:46;;;;;;;6.57;2.40;;;2.40;99.90;;;;;;7380214;19;20368;-79
2023/03/05 02:25:16;;;;;;;5.00;2.33;;;2.30;99.90;;;;;;7382528;19;20320;-83
2023/03/05 02:27:54;;;;;;;6.03;2.47;;;2.30;99.90;;;;;;7372508;19;20832;-88
2023/03/05 02:30:31;;;;;;;5.85;2.50;;;2.40;99.90;;;;;;7381485;19;20308;-79
2023/03/05 02:32:57;;;;;;;9.33;2.70;;;2.30;99.90;;;;;;7382072;19;20357;-83
2023/03/05 02:35:23;;;;;;;7.03;2.80;;;2.30;99.90;;;;;;7381628;19;20876;-78
2023/03/05 02:37:49;;;;;;;7.65;2.70;;;2.30;99.90;;;;;;7380969;19;20353;-81
2023/03/05 02:40:15;;;;;;;6.05;2.30;;;2.30;99.90;;;;;;7382767;19;20293;-77
2023/03/05 02:42:41;;;;;;;6.00;2.27;;;2.30;99.90;;;;;;7383963;19;20313;-77
2023/03/05 02:45:07;;;;;;;6.43;2.80;;;2.20;99.90;;;;;;7384706;19;20341;-81
2023/03/05 02:47:33;;;;;;;6.30;2.07;;;2.20;99.90;;;;;;7383232;19;20316;-79
2023/03/05 02:49:58;;;;;;;5.05;2.30;;;2.10;99.90;;;;;;7379012;19;20404;-80
2023/03/05 02:52:26;;;;;;;4.72;2.17;;;2.20;99.90;;;;;;7391080;19;20316;-85
2023/03/05 02:54:54;;;;;;;8.30;2.20;;;2.20;99.90;;;;;;7385764;19;20352;-89
2023/03/05 02:57:22;;;;;;;5.50;2.53;;;2.20;99.90;;;;;;7386099;19;20332;-78
2023/03/05 02:59:51;;;;;;;5.22;2.10;;;2.10;99.90;;;;;;7385465;19;20397;-87
2023/03/05 03:02:17;;;;;;;5.67;2.30;;;2.10;99.90;;;;;;7380588;19;20662;-78
2023/03/05 03:04:43;;;;;;;5.80;2.07;;;2.10;99.90;;;;;;7381457;19;20370;-80
2023/03/05 03:07:10;;;;;;;4.30;2.17;;;2.20;99.90;;;;;;7388768;19;20332;-85
2023/03/05 03:09:41;;;;;;;5.13;2.20;;;2.10;99.90;;;;;;7369808;19;20327;-85
2023/03/05 03:12:09;;;;;;;4.97;2.20;;;2.10;99.90;;;;;;7384807;19;20353;-84
2023/03/05 03:14:38;;;;;;;3.97;2.30;;;2.10;99.90;;;;;;7382914;19;20327;-80
2023/03/05 03:17:15;;;;;;;6.43;2.35;;;2.10;99.90;;;;;;7378793;19;20301;-78
2023/03/05 03:19:41;;;;;;;2.20;1.60;;;2.10;99.90;;;;;;7280433;19;2004592;-80
2023/03/05 03:22:07;;;;;;;4.75;2.25;;;2.20;99.90;;;;;;7397407;19;20324;-80
2023/03/05 03:24:33;;;;;;;7.20;2.28;;;2.10;99.90;;;;;;7390394;19;20328;-87
2023/03/05 03:26:59;;;;;;;5.60;2.30;;;2.10;99.90;;;;;;7388693;19;20345;-79
2023/03/05 03:29:24;;;;;;;6.20;1.90;;;2.00;99.90;;;;;;7385323;19;20345;-86
2023/03/05 03:31:51;;;;;;;5.60;2.17;;;2.00;99.90;;;;;;7383826;19;20416;-78
2023/03/05 03:34:26;;;;;;;2.47;1.70;;;2.00;99.90;;;;;;7387070;19;20686;-82
2023/03/05 03:36:51;;;;;;;5.93;1.95;;;1.90;99.90;;;;;;7389755;19;20329;-79
2023/03/05 03:39:17;;;;;;;5.47;1.97;;;1.90;99.90;;;;;;7385468;19;20526;-90
2023/03/05 03:41:48;;;;;;;4.50;1.90;;;1.90;99.90;;;;;;7390080;19;20475;-85
2023/03/05 03:44:19;;;;;;;4.55;1.80;;;1.90;99.90;;;;;;7389998;19;20333;-91
2023/03/05 03:46:45;;;;;;;3.47;1.58;;;1.80;99.90;;;;;;7389815;19;20312;-77
2023/03/05 03:49:20;;;;;;;4.40;1.90;;;1.80;99.90;;;;;;7382879;19;20645;-78
2023/03/05 03:51:48;;;;;;;4.60;1.65;;;1.80;99.90;;;;;;7385746;19;20305;-86
2023/03/05 03:54:14;;;;;;;5.00;2.03;;;1.70;99.90;;;;;;7387668;19;20383;-84
2023/03/05 03:56:39;;;;;;;3.03;1.70;;;1.70;99.90;;;;;;7388057;19;20342;-77
2023/03/05 03:59:06;;;;;;;5.20;1.75;;;1.70;99.90;;;;;;7387695;19;20296;-81
2023/03/05 04:01:31;;;;;;;2.33;1.48;;;1.70;99.90;;;;;;7386114;19;20319;-84
2023/03/05 04:03:57;;;;;;;4.13;1.70;;;1.60;99.90;;;;;;7387867;19;20412;-81
2023/03/05 04:06:23;;;;;;;3.57;1.70;;;1.60;99.90;;;;;;7383605;19;20324;-79
2023/03/05 04:08:49;;;;;;;4.80;1.65;;;1.50;99.90;;;;;;7380818;19;21017;-81
2023/03/05 04:11:18;;;;;;;4.63;1.77;;;1.50;99.90;;;;;;7381056;19;20332;-85
2023/03/05 04:13:44;;;;;;;5.78;1.98;;;1.50;99.90;;;;;;7382822;19;20341;-80
2023/03/05 04:16:09;;;;;;;6.53;2.20;;;1.50;99.90;;;;;;7382077;19;20695;-77
2023/03/05 04:18:35;;;;;;;3.60;1.40;;;1.40;99.90;;;;;;7383676;19;20312;-77
2023/03/05 04:21:01;;;;;;;4.63;1.80;;;1.40;99.90;;;;;;7381613;19;20345;-78
2023/03/05 04:23:26;;;;;;;4.23;1.97;;;1.40;99.90;;;;;;7380966;19;20320;-79
2023/03/05 04:25:52;;;;;;;4.57;1.57;;;1.40;99.90;;;;;;7382201;19;20352;-83
2023/03/05 04:28:18;;;;;;;3.33;1.80;;;1.40;99.90;;;;;;7383864;19;20321;-79
2023/03/05 04:30:52;;;;;;;2.87;1.57;;;1.40;99.90;;;;;;7378854;19;20320;-80
2023/03/05 04:33:17;;;;;;;4.28;1.70;;;1.40;99.90;;;;;;7380445;19;20320;-81
2023/03/05 04:35:43;;;;;;;3.60;1.67;;;1.30;99.90;;;;;;7381106;19;20924;-79
2023/03/05 04:38:09;;;;;;;4.33;1.60;;;1.30;99.90;;;;;;7390782;19;20843;-83
2023/03/05 04:40:35;;;;;;;5.30;1.85;;;1.30;99.90;;;;;;7388048;19;20332;-86
2023/03/05 04:43:02;;;;;;;4.10;1.90;;;1.30;99.90;;;;;;7388366;19;20309;-83
2023/03/05 04:45:28;;;;;;;2.38;1.70;;;1.40;99.90;;;;;;7388836;19;20313;-83
2023/03/05 04:47:54;;;;;;;3.72;1.45;;;1.40;99.90;;;;;;7390001;19;20389;-79
2023/03/05 04:50:20;;;;;;;3.75;1.50;;;1.30;99.90;;;;;;7392512;19;20354;-81
2023/03/05 04:52:46;;;;;;;3.15;1.50;;;1.30;99.90;;;;;;7392375;19;20348;-88
2023/03/05 04:55:12;;;;;;;4.63;1.80;;;1.30;99.90;;;;;;7392110;19;20400;-85
2023/03/05 04:57:38;;;;;;;2.35;1.45;;;1.30;99.90;;;;;;7393467;19;20319;-80
2023/03/05 05:00:06;;;;;;;3.70;1.60;;;1.30;99.90;;;;;;7384358;19;20859;-82
2023/03/05 05:02:43;;;;;;;3.08;1.60;;;1.30;99.90;;;;;;7383902;19;20347;-82
2023/03/05 05:05:14;;;;;;;2.67;1.48;;;1.30;99.90;;;;;;7386168;19;20400;-82
2023/03/05 05:07:43;;;;;;;2.50;1.50;;;1.30;99.90;;;;;;7282262;19;2019772;-80
2023/03/05 05:10:09;;;;;;;3.03;1.48;;;1.30;99.90;;;;;;7385296;19;20304;-81
2023/03/05 05:12:36;;;;;;;2.75;1.45;;;1.30;99.90;;;;;;7385230;19;21066;-82
2023/03/05 05:15:02;;;;;;;3.20;1.50;;;1.30;99.90;;;;;;7383753;19;20328;-87
2023/03/05 05:17:29;;;;;;;2.30;1.50;;;1.30;99.90;;;;;;7384404;19;20322;-85
2023/03/05 05:19:56;;;;;;;4.22;1.70;;;1.30;99.90;;;;;;7384927;19;20805;-82
2023/03/05 05:22:27;;;;;;;3.73;1.77;;;1.30;99.90;;;;;;7382037;19;20879;-75
2023/03/05 05:24:53;;;;;;;4.78;1.60;;;1.20;99.90;;;;;;7379567;19;20362;-77
2023/03/05 05:27:18;;;;;;;3.22;1.60;;;1.20;99.90;;;;;;7379727;19;20313;-78
2023/03/05 05:29:48;;;;;;;4.30;1.53;;;1.20;99.90;;;;;;7385172;19;20373;-80
2023/03/05 05:32:16;;;;;;;2.00;1.20;;;1.20;99.90;;;;;;7387310;19;20348;-87
2023/03/05 05:34:42;;;;;;;3.13;1.70;;;1.10;99.90;;;;;;7379479;19;20390;-79
2023/03/05 05:37:14;;;;;;;2.60;1.50;;;1.10;99.90;;;;;;7372677;19;21279;-89
2023/03/05 05:39:42;;;;;;;3.20;1.50;;;1.10;99.90;;;;;;7218073;19;2004382;-79
2023/03/05 05:42:07;;;;;;;2.90;1.50;;;1.10;99.90;;;;;;7378245;19;20835;-79
2023/03/05 05:44:34;;;;;;;1.48;1.30;;;1.10;99.90;;;;;;7385930;19;21292;-85
2023/03/05 05:47:00;;;;;;;3.38;1.50;;;1.10;99.90;;;;;;7383700;19;20305;-84
2023/03/05 05:49:27;;;;;;;2.30;1.50;;;1.10;99.90;;;;;;7384058;19;20309;-81
2023/03/05 05:51:52;;;;;;;3.15;1.40;;;1.10;99.90;;;;;;7383269;19;20395;-83
2023/03/05 05:54:18;;;;;;;2.27;1.30;;;1.10;99.90;;;;;;7385466;19;20317;-82
2023/03/05 05:56:43;;;;;;;2.60;1.45;;;1.00;99.90;;;;;;7383257;19;20320;-80
2023/03/05 05:59:18;;;;;;;1.90;1.40;;;1.00;99.90;;;;;;7384039;19;20847;-80
2023/03/05 06:01:44;;;;;;;2.30;1.42;;;0.90;99.90;;;;;;7279854;19;2020353;-84
2023/03/05 06:04:14;;;;;;;2.25;1.27;;;0.90;99.90;;;;;;7384936;19;21194;-76
2023/03/05 06:06:40;;;;;;;4.33;1.40;;;0.90;99.90;;;;;;7280424;19;2020723;-81
2023/03/05 06:09:06;;;;;;;3.65;1.20;;;1.00;99.90;;;;;;7385229;19;20317;-79
2023/03/05 06:11:32;;;;;;;1.80;1.40;;;1.00;99.90;;;;;;7384438;19;20313;-79
2023/03/05 06:13:58;;;;;;;1.48;1.30;;;0.90;99.90;;;;;;7384889;19;20322;-85
2023/03/05 06:16:24;;;;;;;3.38;1.60;;;1.00;99.90;;;;;;7383922;19;20321;-80
2023/03/05 06:18:50;;;;;;;2.40;1.40;;;1.00;99.90;;;;;;7383157;19;20415;-79
2023/03/05 06:21:16;;;;;;;3.03;1.70;;;0.90;99.90;;;;;;7383083;19;20318;-80
2023/03/05 06:23:42;;;;;;;3.17;1.48;;;1.00;99.90;;;;;;7383035;19;20309;-81
2023/03/05 06:26:09;;;;;;;3.90;1.42;;;1.00;99.90;;;;;;7384513;19;20325;-80
2023/03/05 06:28:34;;;;;;;1.90;1.30;;;1.00;99.90;;;;;;7382033;19;20346;-79
2023/03/05 06:31:01;;;;;;;3.00;1.73;;;1.00;99.90;;;;;;7381710;19;20317;-83
2023/03/05 06:33:32;;;;;;;3.75;1.55;;;1.10;99.90;;;;;;7383776;19;20364;-85
2023/03/05 06:35:58;;;;;;;1.88;1.33;;;1.10;99.90;;;;;;7383330;19;21052;-84
2023/03/05 06:38:24;;;;;;;1.93;1.50;;;1.10;99.90;;;;;;7382685;19;20312;-81
2023/03/05 06:40:49;;;;;;;2.40;1.88;;;1.10;99.90;;;;;;7380588;19;20300;-80
2023/03/05 06:43:15;;;;;;;3.93;2.30;;;1.20;99.90;;;;;;7383277;19;20324;-81
2023/03/05 06:45:41;;;;;;;3.17;1.92;;;1.20;99.90;;;;;;7382604;19;20312;-81
2023/03/05 06:48:08;;;;;;;3.17;1.60;;;1.20;99.90;;;;;;7383562;19;20836;-86
2023/03/05 06:50:35;;;;;;;4.43;1.55;;;1.20;99.90;;;;;;7382407;19;20384;-82
2023/03/05 06:53:00;;;;;;;2.05;1.55;;;1.20;99.90;;;;;;7381842;19;20305;-83
2023/03/05 06:55:38;;;;;;;3.00;1.60;;;1.40;99.90;;;;;;7387699;19;20395;-78
2023/03/05 06:58:04;;;;;;;1.80;1.40;;;1.40;99.90;;;;;;7388933;19;20329;-85
2023/03/05 07:00:29;;;;;;;2.72;1.60;;;1.40;99.90;;;;;;7388734;19;20428;-83
2023/03/05 07:02:55;;;;;;;4.03;1.60;;;1.50;99.90;;;;;;7389781;19;20312;-78
2023/03/05 07:05:20;;;;;;;2.33;1.50;;;1.60;99.90;;;;;;7389042;19;20329;-83
2023/03/05 07:07:46;;;;;;;4.30;1.67;;;1.70;99.90;;;;;;7389411;19;20336;-84
2023/03/05 07:10:12;;;;;;;2.75;1.40;;;1.60;99.90;;;;;;7388125;19;20362;-81
2023/03/05 07:12:38;;;;;;;3.77;1.90;;;1.70;99.90;;;;;;7388902;19;20331;-83
2023/03/05 07:15:04;;;;;;;2.70;1.85;;;1.80;99.90;;;;;;7387821;19;20320;-79
2023/03/05 07:17:31;;;;;;;4.65;2.03;;;1.80;99.90;;;;;;7388468;19;20646;-78
2023/03/05 07:19:56;;;;;;;3.30;1.97;;;1.80;99.90;;;;;;7387953;19;20341;-86
2023/03/05 07:22:23;;;;;;;2.92;2.00;;;1.90;99.90;;;;;;7388236;19;20316;-83
2023/03/05 07:24:49;;;;;;;5.10;3.70;;;1.90;99.90;;;;;;7388177;19;20366;-82
2023/03/05 07:27:14;;;;;;;5.75;3.42;;;2.00;99.90;;;;;;7389074;19;20377;-81
2023/03/05 07:29:40;;;;;;;9.20;5.38;;;2.10;99.90;;;;;;7388789;19;20316;-84
2023/03/05 07:32:06;;;;;;;3.67;2.20;;;2.10;99.90;;;;;;7387080;19;20309;-77
2023/03/05 07:34:31;;;;;;;4.13;2.08;;;2.20;99.90;;;;;;7389723;19;20320;-80
2023/03/05 07:36:58;;;;;;;2.33;2.05;;;2.10;99.90;;;;;;7387632;19;20332;-82
2023/03/05 07:39:24;;;;;;;5.03;2.30;;;2.10;99.90;;;;;;7385294;19;20309;-84
2023/03/05 07:41:50;;;;;;;4.53;2.15;;;2.10;99.90;;;;;;7385574;19;20676;-81
2023/03/05 07:44:16;;;;;;;3.10;2.13;;;2.20;99.90;;;;;;7386515;19;20317;-78
2023/03/05 07:46:42;;;;;;;3.20;1.80;;;2.30;99.90;;;;;;7386079;19;20372;-77
2023/03/05 07:49:07;;;;;;;4.03;2.10;;;2.20;99.90;;;;;;7384551;19;20345;-83
2023/03/05 07:51:33;;;;;;;2.80;2.00;;;2.30;99.90;;;;;;7387699;19;20316;-80
2023/03/05 07:53:59;;;;;;;3.65;2.33;;;2.30;99.90;;;;;;7386599;19;20334;-83
2023/03/05 07:56:34;;;;;;;4.37;2.27;;;2.20;99.90;;;;;;7387299;19;20737;-78
2023/03/05 07:59:00;;;;;;;4.65;1.98;;;2.20;99.90;;;;;;7386268;19;20340;-79
2023/03/05 08:01:26;;;;;;;3.58;1.67;;;2.20;99.90;;;;;;7387233;19;20297;-80
2023/03/05 08:03:54;;;;;;;4.20;2.72;;;2.30;99.90;;;;;;7386558;19;20316;-86
2023/03/05 08:06:20;;;;;;;4.93;3.03;;;2.40;99.90;;;;;;7385829;19;20331;-81
2023/03/05 08:08:45;;;;;;;4.47;1.90;;;2.40;99.90;;;;;;7386826;19;20859;-79
2023/03/05 08:11:12;;;;;;;3.23;2.00;;;2.40;99.90;;;;;;7386972;19;20396;-84
2023/03/05 08:13:38;;;;;;;2.17;1.65;;;2.50;99.90;;;;;;7387480;19;21068;-78
2023/03/05 08:16:17;;;;;;;6.20;1.90;;;2.60;99.90;;;;;;7387205;19;20319;-81
2023/03/05 08:18:57;;;;;;;5.80;1.90;;;2.60;99.90;;;;;;7197188;19;2004213;-85
2023/03/05 08:21:40;;;;;;;2.03;1.65;;;2.60;99.90;;;;;;7335504;19;20844;-81
2023/03/05 08:24:07;;;;;;;2.90;2.00;;;2.40;99.90;;;;;;7386076;19;20344;-81
2023/03/05 08:26:34;;;;;;;3.72;2.05;;;2.50;99.90;;;;;;7387232;19;20335;-83
2023/03/05 08:29:06;;;;;;;3.42;2.22;;;2.40;99.90;;;;;;7386214;19;20344;-77
2023/03/05 08:31:32;;;;;;;6.75;2.80;;;2.50;99.90;;;;;;7386275;19;20360;-86
2023/03/05 08:34:00;;;;;;;2.90;2.15;;;2.60;99.90;;;;;;7388107;19;20316;-81
2023/03/05 08:36:25;;;;;;;2.80;1.50;;;2.80;99.90;;;;;;7390153;19;20416;-82
2023/03/05 08:38:52;;;;;;;3.25;1.80;;;2.80;99.90;;;;;;7386662;19;20369;-81
2023/03/05 08:41:18;;;;;;;3.55;1.83;;;2.90;99.90;;;;;;7390079;19;20337;-81
2023/03/05 08:43:43;;;;;;;3.22;1.75;;;2.90;99.90;;;;;;7383827;19;20876;-84
2023/03/05 08:46:12;;;;;;;2.93;1.70;;;3.00;99.90;;;;;;7385535;19;20327;-80
2023/03/05 08:48:38;;;;;;;3.20;1.60;;;3.00;99.90;;;;;;7385093;19;20325;-82
2023/03/05 08:51:08;;;;;;;3.28;1.63;;;3.00;99.90;;;;;;7383802;19;20440;-78
2023/03/05 08:53:33;;;;;;;2.67;1.80;;;3.10;99.90;;;;;;7384197;19;20313;-77
2023/03/05 08:55:59;;;;;;;5.55;1.90;;;3.20;99.90;;;;;;7384444;19;20446;-85
2023/03/05 08:58:27;;;;;;;2.95;1.67;;;3.30;99.90;;;;;;7388384;19;20308;-80
2023/03/05 09:00:55;;;;;;;4.60;1.70;;;3.30;99.90;;;;;;7385199;19;20309;-79
2023/03/05 09:03:20;;;;;;;1.55;1.45;;;3.40;99.90;;;;;;7384951;19;20338;-78
2023/03/05 09:05:48;;;;;;;3.33;1.67;;;3.40;99.90;;;;;;7385569;19;20396;-78
2023/03/05 09:08:14;;;;;;;2.42;1.42;;;3.50;99.90;;;;;;7381178;19;20309;-76
2023/03/05 09:10:45;;;;;;;3.05;1.40;;;3.60;99.90;;;;;;7384314;19;20853;-80
2023/03/05 09:13:10;;;;;;;1.43;1.30;;;3.50;99.90;;;;;;7384580;19;20321;-77
2023/03/05 09:15:36;;;;;;;4.20;1.40;;;3.40;99.90;;;;;;7383573;19;20316;-77
2023/03/05 09:18:02;;;;;;;1.38;1.17;;;3.70;99.90;;;;;;7383811;19;20643;-78
2023/03/05 09:20:27;;;;;;;1.60;1.10;;;3.70;99.90;;;;;;7381451;19;20324;-80
2023/03/05 09:22:53;;;;;;;2.75;1.20;;;3.80;99.90;;;;;;7383232;19;20946;-82
2023/03/05 09:25:18;;;;;;;3.23;1.20;;;3.90;99.90;;;;;;7385328;19;20422;-77
2023/03/05 09:27:50;;;;;;;3.30;1.55;;;3.80;99.90;;;;;;7382506;19;20316;-78
2023/03/05 09:30:18;;;;;;;1.10;1.00;;;4.10;99.90;;;;;;7384105;19;20457;-84
2023/03/05 09:32:43;;;;;;;3.78;2.03;;;4.00;99.90;;;;;;7384808;19;20954;-75
2023/03/05 09:35:09;;;;;;;1.97;1.17;;;4.00;99.90;;;;;;7378998;19;20320;-77
2023/03/05 09:37:35;;;;;;;3.00;1.50;;;4.00;99.90;;;;;;7379138;19;20412;-81
2023/03/05 09:40:00;;;;;;;1.23;1.10;;;3.90;99.90;;;;;;7380245;19;20303;-80
2023/03/05 09:43:08;;;;;;;1.03;1.03;;;4.00;99.90;;;;;;7379304;19;20312;-80
2023/03/05 09:46:04;;;;;;;2.72;1.83;;;4.30;99.90;;;;;;7275295;19;2018177;-78
2023/03/05 09:48:52;;;;;;;5.90;3.42;;;4.40;99.90;;;;;;7279788;19;2009469;-80
2023/03/05 09:51:23;;;;;;;5.13;2.78;;;4.40;99.90;;;;;;7275713;19;2004679;-79
2023/03/05 09:54:02;;;;;;;2.67;1.83;;;4.50;99.90;;;;;;7378196;19;20965;-83
2023/03/05 09:56:33;;;;;;;2.38;2.00;;;4.40;99.90;;;;;;7379456;19;20319;-80
2023/03/05 09:59:13;;;;;;;1.20;1.10;;;4.50;99.90;;;;;;7377354;19;20367;-78
2023/03/05 10:01:40;;;;;;;1.73;1.60;;;4.20;99.90;;;;;;7379421;19;20340;-77
2023/03/05 10:04:13;;;;;;;1.23;0.98;;;4.40;99.90;;;;;;7378533;19;20325;-76
2023/03/05 10:06:51;;;;;;;2.03;1.23;;;4.20;99.90;;;;;;7378004;19;20329;-77
2023/03/05 10:09:24;;;;;;;3.55;1.35;;;4.40;99.90;;;;;;7273929;19;2020001;-77
2023/03/05 10:11:54;;;;;;;1.50;1.20;;;4.40;99.90;;;;;;7373509;19;20348;-78
2023/03/05 10:14:25;;;;;;;2.05;1.58;;;4.20;99.90;;;;;;7376751;19;20435;-83
2023/03/05 10:17:00;;;;;;;1.15;1.08;;;4.40;99.90;;;;;;7375549;19;20328;-84
2023/03/05 10:20:03;;;;;;;1.60;1.20;;;4.40;99.90;;;;;;7378161;19;20391;-78
2023/03/05 10:22:31;;;;;;;1.75;1.23;;;4.70;99.90;;;;;;7273204;19;2004569;-77
2023/03/05 10:25:08;;;;;;;2.30;1.10;;;4.60;99.90;;;;;;7376382;19;20344;-77
2023/03/05 10:27:48;;;;;;;1.38;1.23;;;4.80;99.90;;;;;;7376583;19;20629;-80
2023/03/05 10:30:26;;;;;;;1.93;1.30;;;5.20;99.90;;;;;;7272226;19;2004458;-78
2023/03/05 10:32:56;;;;;;;0.95;0.95;;;5.20;99.90;;;;;;7375536;19;20332;-81
2023/03/05 10:35:50;;;;;;;1.00;1.00;;;5.10;99.90;;;;;;7376894;19;20863;-77
2023/03/05 10:38:55;;;;;;;1.35;1.08;;;5.00;99.90;;;;;;7275023;19;2004429;-78
2023/03/05 10:41:43;;;;;;;2.20;1.20;;;4.70;99.90;;;;;;7274501;19;2004420;-76
2023/03/05 10:44:35;;;;;;;2.00;1.10;;;4.60;99.90;;;;;;7377538;19;20403;-84
2023/03/05 10:47:01;;;;;;;1.42;1.13;;;4.70;99.90;;;;;;7270968;19;2004409;-84
2023/03/05 10:49:35;;;;;;;1.13;1.03;;;4.50;99.90;;;;;;7373217;19;20348;-77
2023/03/05 10:52:14;;;;;;;2.53;1.10;;;4.50;99.90;;;;;;7375657;19;20332;-80
2023/03/05 10:54:42;;;;;;;1.13;0.93;;;4.30;99.90;;;;;;7380001;19;20341;-78
2023/03/05 10:57:20;;;;;;;1.40;1.30;;;4.40;99.90;;;;;;7377824;19;20301;-76
2023/03/05 10:59:52;;;;;;;1.38;1.20;;;4.40;99.90;;;;;;7274076;19;2004461;-78
2023/03/05 11:02:18;;;;;;;3.35;1.10;;;4.60;99.90;;;;;;7372461;19;20319;-82
2023/03/05 11:04:46;;;;;;;1.73;1.52;;;4.40;99.90;;;;;;7376535;19;20352;-80
2023/03/05 11:07:14;;;;;;;1.47;1.17;;;4.30;99.90;;;;;;7377916;19;20384;-78
2023/03/05 11:09:43;;;;;;;1.92;1.10;;;4.50;99.90;;;;;;7379059;19;20317;-80
2023/03/05 11:12:23;;;;;;;1.88;1.27;;;4.20;99.90;;;;;;7375321;19;21307;-84
2023/03/05 11:15:04;;;;;;;1.20;1.10;;;4.40;99.90;;;;;;7273192;19;2019782;-78
2023/03/05 11:17:32;;;;;;;1.17;1.08;;;4.40;99.90;;;;;;7374501;19;20327;-78
2023/03/05 11:20:26;;;;;;;3.33;2.22;;;4.40;99.90;;;;;;7375565;19;20370;-78
2023/03/05 11:23:12;;;;;;;1.30;1.13;;;4.50;99.90;;;;;;7271440;19;2006217;-79
2023/03/05 11:25:52;;;;;;;1.90;1.30;;;4.50;99.90;;;;;;7375422;19;20398;-77
2023/03/05 11:28:20;;;;;;;1.60;1.30;;;4.60;99.90;;;;;;7273385;19;2004376;-81
2023/03/05 11:30:57;;;;;;;2.28;1.70;;;4.70;99.90;;;;;;7374207;19;20343;-78
2023/03/05 11:33:23;;;;;;;1.30;1.20;;;4.80;99.90;;;;;;7377918;19;20369;-80
2023/03/05 11:35:50;;;;;;;3.30;1.92;;;4.80;99.90;;;;;;7379905;19;20835;-80
2023/03/05 11:38:23;;;;;;;1.13;1.13;;;4.90;99.90;;;;;;7376895;19;20876;-82
2023/03/05 11:40:49;;;;;;;2.25;1.58;;;4.70;99.90;;;;;;7382551;19;20920;-83
2023/03/05 11:43:17;;;;;;;1.13;1.08;;;4.60;99.90;;;;;;7381250;19;20320;-80
2023/03/05 11:45:43;;;;;;;1.40;1.30;;;4.90;99.90;;;;;;7382828;19;20344;-79
2023/03/05 11:48:24;;;;;;;1.13;1.03;;;5.10;99.90;;;;;;7384370;19;20312;-78
2023/03/05 11:51:00;;;;;;;0.95;0.90;;;4.90;99.90;;;;;;7279888;19;2016011;-77
2023/03/05 11:53:28;;;;;;;1.10;1.00;;;4.80;99.90;;;;;;7382330;19;20338;-80
2023/03/05 11:56:04;;;;;;;1.08;1.02;;;4.60;99.90;;;;;;7380658;19;20321;-83
2023/03/05 11:58:49;;;;;;;2.20;1.17;;;4.80;99.90;;;;;;7381681;19;21144;-77
2023/03/05 12:01:19;;;;;;;1.20;0.93;;;4.80;99.90;;;;;;7277435;19;2018949;-78
2023/03/05 12:03:45;;;;;;;1.92;1.27;;;4.50;99.90;;;;;;7379453;19;20337;-78
2023/03/05 12:06:48;;;;;;;0.90;0.90;;;4.70;99.90;;;;;;7381511;19;20335;-80
2023/03/05 12:09:40;;;;;;;2.23;1.30;;;4.70;99.90;;;;;;7175310;19;2019613;-79
2023/03/05 12:12:11;;;;;;;0.97;0.90;;;4.70;99.90;;;;;;7382139;19;20325;-83
2023/03/05 12:14:57;;;;;;;1.00;1.00;;;4.80;99.90;;;;;;7381148;19;20320;-81
2023/03/05 12:18:00;;;;;;;1.30;1.20;;;4.80;99.90;;;;;;7279690;19;2004386;-77
2023/03/05 12:20:41;;;;;;;2.97;1.50;;;4.70;99.90;;;;;;7278131;19;2019811;-76
2023/03/05 12:23:12;;;;;;;1.77;1.50;;;4.90;99.90;;;;;;7381716;19;20312;-77
2023/03/05 12:25:40;;;;;;;1.15;1.00;;;5.10;99.90;;;;;;7378698;19;20994;-78
2023/03/05 12:28:27;;;;;;;1.90;1.50;;;5.10;99.90;;;;;;7381398;19;20365;-76
2023/03/05 12:30:54;;;;;;;1.30;1.20;;;5.00;99.90;;;;;;7275457;19;2004670;-76
2023/03/05 12:33:33;;;;;;;1.40;1.30;;;4.70;99.90;;;;;;7377634;19;20324;-80
2023/03/05 12:36:20;;;;;;;1.85;1.10;;;4.80;99.90;;;;;;7379481;19;20341;-78
2023/03/05 12:38:52;;;;;;;2.03;1.60;;;4.60;99.90;;;;;;7277818;19;2004456;-76
2023/03/05 12:41:24;;;;;;;1.00;0.90;;;4.60;99.90;;;;;;7379257;19;20337;-81
2023/03/05 12:44:05;;;;;;;1.42;1.33;;;4.70;99.90;;;;;;7378293;19;20312;-77
2023/03/05 12:46:37;;;;;;;1.80;1.40;;;4.80;99.90;;;;;;7378958;19;20347;-77
2023/03/05 12:49:26;;;;;;;1.42;1.33;;;4.90;99.90;;;;;;7378776;19;20348;-83
2023/03/05 12:51:52;;;;;;;2.75;1.25;;;4.60;99.90;;;;;;7273863;19;2004346;-78
2023/03/05 12:54:29;;;;;;;1.20;1.20;;;4.60;99.90;;;;;;7379545;19;20320;-79
2023/03/05 12:56:57;;;;;;;1.63;1.50;;;4.70;99.90;;;;;;7382482;19;20360;-81
2023/03/05 12:59:28;;;;;;;1.43;1.33;;;4.80;99.90;;;;;;7380170;19;20313;-78
2023/03/05 13:02:04;;;;;;;0.90;0.90;;;4.70;99.90;;;;;;7379692;19;20349;-80
2023/03/05 13:04:30;;;;;;;3.28;1.20;;;4.70;99.90;;;;;;7381485;19;20352;-76
2023/03/05 13:07:03;;;;;;;1.40;1.30;;;4.50;99.90;;;;;;7382131;19;20352;-76
2023/03/05 13:09:30;;;;;;;1.40;1.30;;;4.30;99.90;;;;;;7379922;19;20325;-77
2023/03/05 13:11:56;;;;;;;1.50;1.20;;;4.40;99.90;;;;;;7378576;19;20324;-77
2023/03/05 13:14:39;;;;;;;1.33;1.20;;;4.50;99.90;;;;;;7378762;19;20309;-76
2023/03/05 13:17:25;;;;;;;1.20;1.10;;;4.50;99.90;;;;;;7379047;19;20428;-81
2023/03/05 13:19:52;;;;;;;2.00;1.00;;;4.60;99.90;;;;;;7276488;19;2019957;-84